Time;durP1;ratioP1;P1;durP2;ratioP2;P2;SDS_P1;SDS_P2;PMS_P1;PMS_P2;Temp;Humidity;BMP_temperature;BMP_pressure;BME280_temperature;BME280_humidity;BME280_pressure;Samples;Min_cycle;Max_cycle;Signal;HPM_P1;HPM_P2
2021/08/30 00:01:34;;;;;;;28.57;27.27;;;15.60;99.90;;;;;;4990968;28;20529;-74
2021/08/30 00:04:01;;;;;;;29.10;27.80;;;15.70;99.90;;;;;;4991156;28;20454;-74
2021/08/30 00:06:28;;;;;;;29.80;28.20;;;15.70;99.90;;;;;;4990900;28;21032;-74
2021/08/30 00:08:56;;;;;;;30.00;28.50;;;15.70;99.90;;;;;;4991164;28;20949;-74
2021/08/30 00:11:22;;;;;;;29.43;27.83;;;15.70;99.90;;;;;;4991272;28;20458;-74
2021/08/30 00:13:50;;;;;;;29.60;28.20;;;15.60;99.90;;;;;;4990928;28;20458;-74
2021/08/30 00:16:17;;;;;;;28.60;27.10;;;15.60;99.90;;;;;;4990861;28;20859;-73
2021/08/30 00:18:44;;;;;;;30.60;29.03;;;15.70;99.90;;;;;;4990604;28;20482;-73
2021/08/30 00:21:11;;;;;;;30.73;29.13;;;15.70;99.90;;;;;;4990845;28;20992;-73
2021/08/30 00:23:37;;;;;;;30.47;28.87;;;15.70;99.90;;;;;;4991262;28;20450;-74
2021/08/30 00:26:05;;;;;;;31.00;29.20;;;15.70;99.90;;;;;;4990645;28;20544;-74
2021/08/30 00:28:32;;;;;;;31.10;29.50;;;15.60;99.90;;;;;;4990909;28;20866;-73
2021/08/30 00:30:59;;;;;;;31.90;30.10;;;15.60;99.90;;;;;;4990540;28;20446;-72
2021/08/30 00:33:26;;;;;;;32.33;30.43;;;15.60;99.90;;;;;;4990759;28;20461;-73
2021/08/30 00:35:53;;;;;;;30.67;29.00;;;15.70;99.90;;;;;;4990887;28;20446;-74
2021/08/30 00:38:19;;;;;;;30.33;28.83;;;15.60;99.90;;;;;;4992748;28;20459;-74
2021/08/30 00:40:46;;;;;;;32.07;30.17;;;15.60;99.90;;;;;;4994449;28;20458;-74
2021/08/30 00:43:14;;;;;;;30.20;28.60;;;15.60;99.90;;;;;;4995086;28;20838;-74
2021/08/30 00:45:41;;;;;;;31.10;29.40;;;15.70;99.90;;;;;;4994415;28;20482;-74
2021/08/30 00:48:07;;;;;;;29.97;28.47;;;15.70;99.90;;;;;;4994711;28;20458;-74
2021/08/30 00:50:35;;;;;;;31.27;29.57;;;15.70;99.90;;;;;;4994684;28;20455;-74
2021/08/30 00:53:01;;;;;;;31.87;30.07;;;15.70;99.90;;;;;;4994555;28;20678;-73
2021/08/30 00:55:28;;;;;;;31.70;29.97;;;15.70;99.90;;;;;;4994154;28;20459;-73
2021/08/30 00:57:55;;;;;;;31.13;29.43;;;15.80;99.90;;;;;;4994447;28;20457;-73
2021/08/30 01:00:23;;;;;;;31.30;29.40;;;15.80;99.90;;;;;;4994048;28;20455;-75
2021/08/30 01:02:50;;;;;;;31.53;29.77;;;15.80;99.90;;;;;;4994473;28;20982;-74
2021/08/30 01:05:17;;;;;;;31.97;30.27;;;15.80;99.90;;;;;;4994177;28;20521;-74
2021/08/30 01:07:53;;;;;;;31.40;29.60;;;15.80;99.90;;;;;;4994094;28;20513;-73
2021/08/30 01:10:27;;;;;;;32.33;30.43;;;15.80;99.90;;;;;;4994295;28;20450;-73
2021/08/30 01:12:59;;;;;;;31.33;29.40;;;15.80;99.90;;;;;;4994041;28;20454;-74
2021/08/30 01:15:32;;;;;;;30.80;29.07;;;15.80;99.90;;;;;;4994280;28;20489;-74
2021/08/30 01:18:01;;;;;;;29.97;28.37;;;15.70;99.90;;;;;;4993975;28;20486;-74
2021/08/30 01:20:39;;;;;;;29.27;27.47;;;15.70;99.90;;;;;;4993936;28;20478;-73
2021/08/30 01:23:08;;;;;;;29.80;28.20;;;15.70;99.90;;;;;;4993739;28;20454;-73
2021/08/30 01:25:35;;;;;;;29.27;27.47;;;15.70;99.90;;;;;;4993753;28;20486;-73
2021/08/30 01:28:03;;;;;;;29.57;27.77;;;15.60;99.90;;;;;;4993871;28;20815;-73
2021/08/30 01:30:32;;;;;;;30.50;28.80;;;15.70;99.90;;;;;;4993737;28;20462;-74
2021/08/30 01:33:01;;;;;;;28.73;26.83;;;15.80;99.90;;;;;;4994069;28;20450;-73
2021/08/30 01:35:30;;;;;;;30.33;28.53;;;15.90;99.90;;;;;;4993441;28;20474;-72
2021/08/30 01:38:00;;;;;;;28.77;27.07;;;15.90;99.90;;;;;;4993725;28;20852;-73
2021/08/30 01:40:30;;;;;;;29.37;27.57;;;15.80;99.90;;;;;;4993544;28;20458;-73
2021/08/30 01:43:00;;;;;;;27.00;25.50;;;15.80;99.90;;;;;;4993645;28;20454;-73
2021/08/30 01:45:29;;;;;;;27.27;25.63;;;15.90;99.90;;;;;;4993735;28;20798;-73
2021/08/30 01:47:58;;;;;;;28.33;26.47;;;15.90;99.90;;;;;;4993556;28;20446;-74
2021/08/30 01:50:28;;;;;;;28.83;27.13;;;15.80;99.90;;;;;;4992011;28;20945;-74
2021/08/30 01:52:57;;;;;;;27.70;26.20;;;15.80;99.90;;;;;;4993673;28;20447;-74
2021/08/30 01:55:34;;;;;;;28.00;26.50;;;15.80;99.90;;;;;;4993655;28;20458;-74
2021/08/30 02:00:50;;;;;;;27.07;25.57;;;15.90;99.90;;;;;;4993178;28;20790;-73
2021/08/30 02:03:18;;;;;;;27.07;25.47;;;15.90;99.90;;;;;;4993241;28;20694;-74
2021/08/30 02:05:48;;;;;;;27.17;25.40;;;15.80;99.90;;;;;;4993192;28;20489;-74
2021/08/30 02:08:15;;;;;;;25.47;24.13;;;15.80;99.90;;;;;;4993033;28;20450;-73
2021/08/30 02:10:44;;;;;;;26.27;24.67;;;15.80;99.90;;;;;;4992787;28;20949;-73
2021/08/30 02:13:12;;;;;;;25.67;24.07;;;15.80;99.90;;;;;;4993558;28;20470;-74
2021/08/30 02:15:39;;;;;;;26.60;25.20;;;15.80;99.90;;;;;;4993198;28;20450;-73
2021/08/30 02:18:14;;;;;;;25.57;24.17;;;15.90;99.90;;;;;;4992670;28;20981;-74
2021/08/30 02:20:47;;;;;;;25.30;23.90;;;15.90;99.90;;;;;;4992934;28;20482;-73
2021/08/30 02:23:17;;;;;;;24.40;23.10;;;15.90;99.90;;;;;;4992913;28;21107;-73
2021/08/30 02:25:45;;;;;;;25.43;24.00;;;15.80;99.90;;;;;;4992844;28;20455;-74
2021/08/30 02:28:13;;;;;;;27.27;25.80;;;15.90;99.90;;;;;;4992807;28;20457;-74
2021/08/30 02:30:40;;;;;;;28.43;26.87;;;15.80;99.90;;;;;;4992638;28;20461;-73
2021/08/30 02:33:13;;;;;;;29.80;28.30;;;15.80;99.90;;;;;;4992928;28;20473;-73
2021/08/30 02:35:44;;;;;;;33.53;31.60;;;15.70;99.90;;;;;;4992929;28;20455;-73
2021/08/30 02:38:14;;;;;;;33.23;31.50;;;15.60;99.90;;;;;;4992705;28;20447;-73
2021/08/30 02:40:42;;;;;;;34.20;32.20;;;15.60;99.90;;;;;;4992622;28;20522;-74
2021/08/30 02:43:10;;;;;;;34.97;33.07;;;15.60;99.90;;;;;;4992465;28;20448;-75
2021/08/30 02:45:38;;;;;;;32.80;30.90;;;15.60;99.90;;;;;;4992608;28;20852;-74
2021/08/30 02:48:06;;;;;;;35.27;33.20;;;15.50;99.90;;;;;;4992315;28;20948;-74
2021/08/30 02:50:33;;;;;;;33.70;31.70;;;15.50;99.90;;;;;;4992286;28;20509;-74
2021/08/30 02:53:02;;;;;;;33.87;31.97;;;15.60;99.90;;;;;;4992412;28;20454;-75
2021/08/30 02:55:29;;;;;;;33.53;31.63;;;15.60;99.90;;;;;;4992110;28;20486;-73
2021/08/30 02:57:58;;;;;;;36.37;34.30;;;15.50;99.90;;;;;;4992254;28;20869;-73
2021/08/30 03:00:26;;;;;;;35.20;33.20;;;15.60;99.90;;;;;;4992027;28;20454;-73
2021/08/30 03:02:53;;;;;;;34.20;32.30;;;15.40;99.90;;;;;;4992503;28;20455;-72
2021/08/30 03:05:21;;;;;;;37.57;35.47;;;15.40;99.90;;;;;;4992050;28;20454;-73
2021/08/30 03:07:49;;;;;;;36.97;34.90;;;15.40;99.90;;;;;;4991937;28;20588;-73
2021/08/30 03:10:17;;;;;;;37.03;35.03;;;15.30;99.90;;;;;;4991850;28;20478;-72
2021/08/30 03:12:45;;;;;;;37.77;35.67;;;15.40;99.90;;;;;;4991837;28;20914;-73
2021/08/30 03:15:18;;;;;;;39.13;37.03;;;15.40;99.90;;;;;;4991881;28;20458;-72
2021/08/30 03:17:46;;;;;;;39.00;36.90;;;15.40;99.90;;;;;;4991625;28;20525;-74
2021/08/30 03:20:18;;;;;;;38.73;36.53;;;15.30;99.90;;;;;;4991495;28;20474;-74
2021/08/30 03:22:45;;;;;;;37.93;35.83;;;15.40;99.90;;;;;;4991686;28;20466;-74
2021/08/30 03:25:15;;;;;;;35.17;33.47;;;15.40;99.90;;;;;;4993581;28;20462;-73
2021/08/30 03:27:43;;;;;;;37.90;35.90;;;15.40;99.90;;;;;;4995197;28;20517;-73
2021/08/30 03:30:12;;;;;;;38.43;36.43;;;15.40;99.90;;;;;;4995192;28;20461;-73
2021/08/30 03:32:41;;;;;;;38.90;36.80;;;15.40;99.90;;;;;;4992849;28;20929;-72
2021/08/30 03:35:10;;;;;;;38.13;36.00;;;15.30;99.90;;;;;;4991697;28;20857;-73
2021/08/30 03:37:37;;;;;;;38.77;36.67;;;15.30;99.90;;;;;;4991522;28;20810;-72
2021/08/30 03:40:06;;;;;;;37.63;35.63;;;15.30;99.90;;;;;;4991282;28;20458;-72
2021/08/30 03:42:33;;;;;;;39.43;37.33;;;15.30;99.90;;;;;;4991340;28;20837;-72
2021/08/30 03:45:00;;;;;;;39.47;37.37;;;15.20;99.90;;;;;;4991174;28;20470;-72
2021/08/30 03:47:27;;;;;;;40.60;38.30;;;15.20;99.90;;;;;;4991519;28;20489;-71
2021/08/30 03:49:56;;;;;;;41.37;38.67;;;15.20;99.90;;;;;;4991382;28;20496;-71
2021/08/30 03:52:24;;;;;;;40.90;38.60;;;15.20;99.90;;;;;;4991290;28;20971;-72
2021/08/30 03:54:51;;;;;;;42.13;39.57;;;15.30;99.90;;;;;;4991024;28;20451;-72
2021/08/30 03:57:18;;;;;;;42.00;39.57;;;15.30;99.90;;;;;;4991184;28;20716;-72
2021/08/30 03:59:49;;;;;;;42.77;39.97;;;15.30;99.90;;;;;;4991202;28;20462;-72
2021/08/30 04:02:19;;;;;;;41.50;39.20;;;15.30;99.90;;;;;;4990934;28;20462;-72
2021/08/30 04:04:47;;;;;;;43.67;41.00;;;15.30;99.90;;;;;;4990836;28;20453;-73
2021/08/30 04:07:16;;;;;;;41.07;38.67;;;15.30;99.90;;;;;;4990888;28;20495;-72
2021/08/30 04:09:43;;;;;;;41.10;38.90;;;15.30;99.90;;;;;;4991020;28;20459;-72
2021/08/30 04:12:09;;;;;;;41.70;39.40;;;15.30;99.90;;;;;;4990230;28;20812;-72
2021/08/30 04:14:36;;;;;;;41.27;38.97;;;15.30;99.90;;;;;;4991184;28;20522;-73
2021/08/30 04:17:03;;;;;;;41.77;39.30;;;15.30;99.90;;;;;;4990831;28;20473;-72
2021/08/30 04:19:30;;;;;;;42.43;40.03;;;15.40;99.90;;;;;;4991074;28;20501;-72
2021/08/30 04:21:57;;;;;;;42.63;40.03;;;15.30;99.90;;;;;;4990741;28;20462;-72
2021/08/30 04:24:25;;;;;;;44.23;41.70;;;15.30;99.90;;;;;;4990833;28;20439;-72
2021/08/30 04:26:51;;;;;;;42.40;40.00;;;15.40;99.90;;;;;;4990729;28;20487;-73
2021/08/30 04:29:18;;;;;;;43.83;41.33;;;15.40;99.90;;;;;;4990367;28;20486;-73
2021/08/30 04:31:45;;;;;;;43.83;41.13;;;15.40;99.90;;;;;;4990549;28;20457;-75
2021/08/30 04:34:12;;;;;;;46.37;43.30;;;15.40;99.90;;;;;;4990626;28;20454;-75
2021/08/30 04:36:38;;;;;;;47.07;44.17;;;15.40;99.90;;;;;;4990353;28;20961;-73
2021/08/30 04:39:05;;;;;;;46.90;44.00;;;15.40;99.90;;;;;;4990183;28;20466;-75
2021/08/30 04:41:33;;;;;;;44.80;42.10;;;15.40;99.90;;;;;;4989537;28;20973;-73
2021/08/30 04:44:00;;;;;;;48.90;45.80;;;15.40;99.90;;;;;;4989243;28;20451;-73
2021/08/30 04:46:28;;;;;;;48.93;45.83;;;15.40;99.90;;;;;;4990266;28;20947;-75
2021/08/30 04:48:55;;;;;;;50.93;47.60;;;15.50;99.90;;;;;;4988810;28;20459;-75
2021/08/30 04:51:21;;;;;;;47.50;44.40;;;15.40;99.90;;;;;;4990429;28;20872;-75
2021/08/30 04:53:48;;;;;;;51.07;47.87;;;15.40;99.90;;;;;;4988493;28;20819;-73
2021/08/30 04:56:15;;;;;;;49.97;46.27;;;15.50;99.90;;;;;;4989624;28;20447;-74
2021/08/30 15:44:08;;;;;;;17.53;16.53;;;20.50;99.90;;;;;;5584272;23;20484;-75
2021/08/30 15:46:35;;;;;;;17.83;17.03;;;20.80;99.90;;;;;;4950670;28;20472;-75
2021/08/30 15:49:01;;;;;;;16.77;15.97;;;20.90;99.90;;;;;;4953148;28;20496;-75
2021/08/30 15:51:30;;;;;;;18.00;16.80;;;21.00;99.90;;;;;;4953086;28;20456;-75
2021/08/30 15:53:57;;;;;;;18.07;17.27;;;21.10;99.90;;;;;;4952769;28;20457;-75
2021/08/30 15:56:23;;;;;;;18.50;17.50;;;20.90;99.90;;;;;;4952774;28;20464;-75
2021/08/30 15:58:50;;;;;;;17.40;16.50;;;21.00;99.90;;;;;;4952602;28;20477;-76
2021/08/30 16:01:18;;;;;;;18.20;17.27;;;21.00;99.90;;;;;;4952693;29;20819;-74
2021/08/30 16:03:46;;;;;;;19.83;18.73;;;21.00;99.90;;;;;;4952936;28;20468;-76
2021/08/30 16:06:13;;;;;;;20.20;19.10;;;20.90;99.90;;;;;;4952944;28;20457;-75
2021/08/30 16:08:40;;;;;;;19.37;18.20;;;21.00;99.90;;;;;;4951662;28;20503;-75
2021/08/30 16:11:06;;;;;;;19.50;18.20;;;20.80;99.90;;;;;;4952626;28;20739;-75
2021/08/30 16:13:34;;;;;;;19.37;18.37;;;20.60;99.90;;;;;;4952580;28;20464;-74
2021/08/30 16:16:01;;;;;;;21.20;20.00;;;20.40;99.90;;;;;;4952591;28;20970;-75
2021/08/30 16:18:29;;;;;;;20.00;18.90;;;20.10;99.90;;;;;;4952508;28;20455;-73
2021/08/30 16:20:56;;;;;;;20.90;19.80;;;19.70;99.90;;;;;;4952457;28;20560;-73
2021/08/30 16:23:23;;;;;;;23.17;21.80;;;19.40;99.90;;;;;;4952394;28;20904;-74
2021/08/30 16:25:49;;;;;;;20.23;19.10;;;19.20;99.90;;;;;;4952210;28;20946;-74
2021/08/30 16:28:16;;;;;;;23.73;22.30;;;18.90;99.90;;;;;;4952208;28;20491;-73
2021/08/30 16:30:44;;;;;;;21.83;20.60;;;18.70;99.90;;;;;;4952419;28;20875;-73
2021/08/30 16:33:13;;;;;;;23.07;21.40;;;18.60;99.90;;;;;;4952263;28;20453;-73
2021/08/30 16:35:42;;;;;;;22.13;20.60;;;18.50;99.90;;;;;;4952268;28;20539;-74
2021/08/30 16:38:08;;;;;;;22.87;21.57;;;18.60;99.90;;;;;;4952198;28;20480;-74
2021/08/30 16:40:35;;;;;;;22.90;21.60;;;18.70;99.90;;;;;;4952143;28;20461;-75
2021/08/30 16:43:03;;;;;;;23.40;21.90;;;18.80;99.90;;;;;;4952181;28;20476;-75
2021/08/30 16:45:30;;;;;;;25.20;23.47;;;18.90;99.90;;;;;;4952270;28;20484;-75
2021/08/30 16:47:56;;;;;;;28.20;26.40;;;19.00;99.90;;;;;;4952265;29;20486;-73
2021/08/30 16:50:23;;;;;;;33.90;31.70;;;19.10;99.90;;;;;;4952118;28;20823;-73
2021/08/30 16:52:51;;;;;;;36.23;34.20;;;18.90;99.90;;;;;;4952248;28;20455;-74
2021/08/30 16:55:19;;;;;;;34.80;32.90;;;18.80;99.90;;;;;;4952047;28;20460;-73
2021/08/30 16:57:46;;;;;;;34.33;32.20;;;18.70;99.90;;;;;;4952193;28;20468;-73
2021/08/30 17:00:15;;;;;;;34.80;32.77;;;18.50;99.90;;;;;;4952175;29;20943;-75
2021/08/30 17:02:42;;;;;;;36.07;33.93;;;18.40;99.90;;;;;;4952011;28;20464;-76
2021/08/30 17:05:11;;;;;;;33.80;31.63;;;18.30;99.90;;;;;;4951796;28;20453;-75
2021/08/30 17:07:38;;;;;;;39.20;36.00;;;18.20;99.90;;;;;;4952011;28;20495;-74
2021/08/30 17:10:07;;;;;;;42.33;39.63;;;18.10;99.90;;;;;;4951518;28;20456;-76
2021/08/30 17:12:34;;;;;;;42.30;40.00;;;18.00;99.90;;;;;;4951671;28;20468;-75
2021/08/30 17:15:01;;;;;;;40.40;37.90;;;17.80;99.90;;;;;;4951790;28;20463;-74
2021/08/30 17:17:28;;;;;;;38.97;37.00;;;17.50;99.90;;;;;;4952097;28;20448;-76
2021/08/30 17:19:55;;;;;;;35.97;34.00;;;17.40;99.90;;;;;;4953179;28;20463;-75
2021/08/30 17:22:21;;;;;;;36.17;34.27;;;17.30;99.90;;;;;;4955366;28;20463;-75
2021/08/30 17:24:48;;;;;;;36.30;34.27;;;17.20;99.90;;;;;;4955437;28;20460;-75
2021/08/30 17:27:16;;;;;;;36.57;34.47;;;17.20;99.90;;;;;;4955177;28;20981;-75
2021/08/30 17:29:43;;;;;;;35.57;33.53;;;17.20;99.90;;;;;;4955548;28;20455;-75
2021/08/30 17:32:10;;;;;;;33.40;31.50;;;17.20;99.90;;;;;;4955107;28;20456;-75
2021/08/30 17:34:37;;;;;;;36.43;34.33;;;17.20;99.90;;;;;;4955430;28;20452;-75
2021/08/30 17:37:04;;;;;;;35.53;33.43;;;17.20;99.90;;;;;;4955071;28;20456;-74
2021/08/30 17:39:31;;;;;;;34.43;32.37;;;17.30;99.90;;;;;;4955316;29;20476;-74
2021/08/30 17:41:57;;;;;;;34.33;32.23;;;17.30;99.90;;;;;;4955095;28;20807;-74
2021/08/30 17:44:25;;;;;;;34.83;32.63;;;17.30;99.90;;;;;;4954879;28;20500;-74
2021/08/30 17:46:52;;;;;;;35.07;33.03;;;17.40;99.90;;;;;;4955064;28;20829;-74
2021/08/30 17:49:19;;;;;;;35.90;33.60;;;17.40;99.90;;;;;;4954705;28;20492;-74
2021/08/30 17:51:46;;;;;;;35.93;33.93;;;17.40;99.90;;;;;;4955058;28;20459;-74
2021/08/30 17:54:12;;;;;;;34.90;32.80;;;17.30;99.90;;;;;;4955010;28;20468;-74
2021/08/30 17:56:39;;;;;;;35.17;32.87;;;17.30;99.90;;;;;;4954927;28;20458;-74
2021/08/30 17:59:06;;;;;;;34.70;32.57;;;17.30;99.90;;;;;;4954564;28;20452;-74
2021/08/30 18:01:34;;;;;;;35.43;33.43;;;17.40;99.90;;;;;;4954829;28;20471;-74
2021/08/30 18:04:01;;;;;;;37.10;34.80;;;17.40;99.90;;;;;;4954798;28;20471;-74
2021/08/30 18:06:29;;;;;;;34.10;32.10;;;17.40;99.90;;;;;;4954912;28;20464;-74
2021/08/30 18:08:56;;;;;;;35.37;32.73;;;17.40;99.90;;;;;;4954582;28;20503;-74
2021/08/30 18:11:23;;;;;;;31.30;29.60;;;17.40;99.90;;;;;;4954608;28;20551;-74
2021/08/30 18:13:49;;;;;;;34.00;31.83;;;17.40;99.90;;;;;;4954301;28;20468;-74
2021/08/30 18:16:16;;;;;;;33.60;31.60;;;17.30;99.90;;;;;;4954250;28;20472;-73
2021/08/30 18:18:44;;;;;;;31.97;29.90;;;17.20;99.90;;;;;;4954623;28;20821;-73
2021/08/30 18:21:11;;;;;;;30.43;28.43;;;17.30;99.90;;;;;;4954332;28;20943;-73
2021/08/30 18:23:39;;;;;;;29.07;27.40;;;17.10;99.90;;;;;;4954489;28;20460;-74
2021/08/30 18:26:06;;;;;;;28.50;26.90;;;17.10;99.90;;;;;;4954084;28;20464;-73
2021/08/30 18:28:33;;;;;;;29.00;27.20;;;17.10;99.90;;;;;;4954190;28;20516;-73
2021/08/30 18:31:00;;;;;;;29.33;27.23;;;17.10;99.90;;;;;;4953541;28;20551;-73
2021/08/30 18:33:28;;;;;;;29.73;27.70;;;17.10;99.90;;;;;;4954477;28;20449;-72
2021/08/30 18:35:56;;;;;;;31.43;29.43;;;17.10;99.90;;;;;;4954188;29;20786;-72
2021/08/30 18:38:23;;;;;;;30.53;28.70;;;17.10;99.90;;;;;;4954111;29;20969;-72
2021/08/30 18:40:50;;;;;;;30.10;28.30;;;17.20;99.90;;;;;;4954079;29;20608;-73
2021/08/30 18:43:16;;;;;;;29.80;27.90;;;17.20;99.90;;;;;;4953770;28;20488;-73
2021/08/30 18:45:43;;;;;;;29.87;28.10;;;17.30;99.90;;;;;;4954036;29;20998;-72
2021/08/30 18:48:10;;;;;;;31.63;29.53;;;17.20;99.90;;;;;;4953701;28;20484;-73
2021/08/30 18:50:36;;;;;;;30.07;28.17;;;17.20;99.90;;;;;;4953778;28;20460;-73
2021/08/30 18:53:04;;;;;;;30.43;28.60;;;17.20;99.90;;;;;;4953619;28;20453;-72
2021/08/30 18:55:31;;;;;;;31.87;29.77;;;17.20;99.90;;;;;;4953998;28;20456;-72
2021/08/30 18:57:58;;;;;;;30.90;28.47;;;17.10;99.90;;;;;;4954578;28;20456;-72
2021/08/30 19:00:25;;;;;;;28.80;27.00;;;17.10;99.90;;;;;;4957091;28;20959;-72
2021/08/30 19:02:51;;;;;;;31.93;29.70;;;17.10;99.90;;;;;;4957241;28;20951;-73
2021/08/30 19:05:18;;;;;;;31.50;29.43;;;17.10;99.90;;;;;;4956608;28;20461;-73
2021/08/30 19:07:45;;;;;;;30.00;28.00;;;17.10;99.90;;;;;;4953699;28;20465;-73
2021/08/30 19:10:13;;;;;;;30.10;28.20;;;17.10;99.90;;;;;;4953460;28;20950;-73
2021/08/30 19:12:41;;;;;;;31.63;29.53;;;17.20;99.90;;;;;;4953411;28;20481;-73
2021/08/30 19:15:09;;;;;;;30.90;28.80;;;17.10;99.90;;;;;;4953156;28;20455;-74
2021/08/30 19:17:36;;;;;;;31.33;29.17;;;17.10;99.90;;;;;;4953455;28;20455;-74
2021/08/30 19:20:04;;;;;;;32.13;29.73;;;17.10;99.90;;;;;;4953288;29;20834;-74
2021/08/30 19:22:31;;;;;;;30.87;28.57;;;17.10;99.90;;;;;;4953336;28;20452;-74
2021/08/30 19:24:58;;;;;;;30.97;28.20;;;17.10;99.90;;;;;;4953087;28;20449;-74
2021/08/30 19:27:26;;;;;;;30.80;28.70;;;17.10;99.90;;;;;;4953184;28;20455;-74
2021/08/30 19:29:52;;;;;;;30.30;28.30;;;17.10;99.90;;;;;;4953053;28;20496;-74
2021/08/30 19:32:22;;;;;;;28.73;26.60;;;17.10;99.90;;;;;;4952841;29;20464;-74
2021/08/30 19:34:49;;;;;;;29.10;26.93;;;17.00;99.90;;;;;;4950971;28;20488;-74
2021/08/30 19:37:15;;;;;;;29.27;27.33;;;17.10;99.90;;;;;;4952894;28;20457;-74
2021/08/30 19:39:42;;;;;;;28.73;26.80;;;17.00;99.90;;;;;;4953138;28;20457;-74
2021/08/30 19:42:09;;;;;;;28.83;26.93;;;17.00;99.90;;;;;;4952608;28;20468;-75
2021/08/30 19:44:37;;;;;;;28.33;26.50;;;17.00;99.90;;;;;;4952582;28;20768;-74
2021/08/30 19:47:05;;;;;;;30.33;28.20;;;17.00;99.90;;;;;;4952607;28;20798;-74
2021/08/30 19:49:31;;;;;;;29.37;27.30;;;17.00;99.90;;;;;;4952726;28;20508;-73
2021/08/30 19:51:58;;;;;;;29.23;27.00;;;17.00;99.90;;;;;;4952594;28;20475;-74
2021/08/30 19:54:25;;;;;;;29.07;26.97;;;16.90;99.90;;;;;;4952797;28;20457;-74
2021/08/30 19:56:52;;;;;;;29.73;27.53;;;16.90;99.90;;;;;;4952741;29;20461;-74
2021/08/30 19:59:20;;;;;;;28.70;26.80;;;16.90;99.90;;;;;;4952469;28;20452;-73
2021/08/30 20:01:48;;;;;;;30.10;27.83;;;16.80;99.90;;;;;;4952681;28;20865;-74
2021/08/30 20:04:16;;;;;;;30.10;27.90;;;16.80;99.90;;;;;;4952667;29;20902;-75
2021/08/30 20:06:43;;;;;;;30.90;28.57;;;16.80;99.90;;;;;;4952758;29;20505;-75
2021/08/30 20:09:10;;;;;;;32.63;30.33;;;16.80;99.90;;;;;;4952339;28;21001;-75
2021/08/30 20:11:36;;;;;;;33.07;30.63;;;16.80;99.90;;;;;;4952582;28;20991;-76
2021/08/30 20:14:03;;;;;;;32.33;30.23;;;16.90;99.90;;;;;;4952182;28;20456;-74
2021/08/30 20:16:33;;;;;;;30.73;28.53;;;16.90;99.90;;;;;;4952610;28;20464;-75
2021/08/30 20:19:01;;;;;;;31.70;29.47;;;16.90;99.90;;;;;;4952465;28;20460;-74
2021/08/30 20:21:28;;;;;;;32.20;29.70;;;16.90;99.90;;;;;;4952669;29;20457;-75
2021/08/30 20:23:55;;;;;;;32.47;30.17;;;17.00;99.90;;;;;;4952400;28;20462;-75
2021/08/30 20:26:22;;;;;;;35.10;32.53;;;17.00;99.90;;;;;;4952522;28;20456;-75
2021/08/30 20:28:49;;;;;;;32.63;30.03;;;17.00;99.90;;;;;;4952273;28;20579;-76
2021/08/30 20:31:15;;;;;;;32.47;30.17;;;17.00;99.90;;;;;;4952329;28;20981;-76
2021/08/30 20:33:46;;;;;;;31.77;29.10;;;17.00;99.90;;;;;;4952492;29;20449;-74
2021/08/30 20:36:14;;;;;;;32.83;30.33;;;17.00;99.90;;;;;;4952260;28;20457;-75
2021/08/30 20:38:41;;;;;;;30.93;28.83;;;17.00;99.90;;;;;;4952311;28;20452;-75
2021/08/30 20:41:08;;;;;;;32.27;29.87;;;17.00;99.90;;;;;;4951665;28;20464;-75
2021/08/30 20:43:34;;;;;;;33.40;31.03;;;17.10;99.90;;;;;;4951431;28;21100;-75
2021/08/30 20:46:01;;;;;;;32.67;29.97;;;17.10;99.90;;;;;;4951261;28;20484;-74
2021/08/30 20:48:28;;;;;;;32.20;29.90;;;17.10;99.90;;;;;;4951835;28;20464;-75
2021/08/30 20:50:54;;;;;;;32.60;30.27;;;17.10;99.90;;;;;;4951696;28;20468;-75
2021/08/30 20:53:22;;;;;;;31.07;28.93;;;17.10;99.90;;;;;;4951438;28;20962;-75
2021/08/30 20:55:49;;;;;;;34.10;31.40;;;17.10;99.90;;;;;;4954386;28;20831;-75
2021/08/30 20:58:16;;;;;;;33.87;31.37;;;17.10;99.90;;;;;;4955388;28;20869;-75
2021/08/30 21:00:42;;;;;;;33.93;31.63;;;17.10;99.90;;;;;;4955505;28;20455;-75
2021/08/30 21:03:09;;;;;;;33.00;30.50;;;17.10;99.90;;;;;;4955071;28;20463;-75
2021/08/30 21:05:36;;;;;;;34.50;31.80;;;17.00;99.90;;;;;;4955179;28;20456;-74
2021/08/30 21:08:03;;;;;;;34.43;31.63;;;17.00;99.90;;;;;;4955140;28;20866;-75
2021/08/30 21:10:31;;;;;;;33.70;31.13;;;17.00;99.90;;;;;;4955397;28;20543;-75
2021/08/30 21:12:57;;;;;;;33.10;30.57;;;16.90;99.90;;;;;;4954862;29;20457;-75
2021/08/30 21:15:24;;;;;;;31.33;29.13;;;16.90;99.90;;;;;;4955033;29;20504;-75
2021/08/30 21:17:51;;;;;;;33.40;30.87;;;16.90;99.90;;;;;;4954924;28;20460;-76
2021/08/30 21:20:17;;;;;;;32.90;30.40;;;16.90;99.90;;;;;;4954749;28;20460;-75
2021/08/30 21:22:44;;;;;;;34.27;31.67;;;16.90;99.90;;;;;;4955141;28;20479;-75
2021/08/30 21:25:11;;;;;;;31.50;29.13;;;16.90;99.90;;;;;;4954840;28;20938;-75
2021/08/30 21:27:40;;;;;;;31.70;29.20;;;16.90;99.90;;;;;;4954694;28;20954;-75
2021/08/30 21:30:07;;;;;;;30.63;28.23;;;16.90;99.90;;;;;;4954638;28;20492;-75
2021/08/30 21:32:34;;;;;;;31.17;28.93;;;16.80;99.90;;;;;;4955083;28;20544;-75
2021/08/30 21:35:01;;;;;;;29.27;26.90;;;16.80;99.90;;;;;;4954780;28;20448;-75
2021/08/30 21:37:30;;;;;;;29.73;27.73;;;16.70;99.90;;;;;;4954811;28;20456;-75
2021/08/30 21:39:57;;;;;;;31.07;28.60;;;16.70;99.90;;;;;;4954431;28;20986;-76
2021/08/30 21:42:23;;;;;;;30.30;28.10;;;16.70;99.90;;;;;;4954492;28;20476;-76
2021/08/30 21:44:51;;;;;;;30.60;28.40;;;16.70;99.90;;;;;;4954374;28;20487;-75
2021/08/30 21:47:18;;;;;;;28.30;26.43;;;16.70;99.90;;;;;;4954479;29;20459;-76
2021/08/30 21:49:45;;;;;;;28.40;26.30;;;16.70;99.90;;;;;;4954700;28;20487;-75
2021/08/30 21:52:11;;;;;;;28.53;26.43;;;16.60;99.90;;;;;;4954377;28;20452;-76
2021/08/30 21:54:38;;;;;;;28.63;26.60;;;16.60;99.90;;;;;;4954258;28;20467;-75
2021/08/30 21:57:05;;;;;;;28.27;26.17;;;16.60;99.90;;;;;;4954209;28;20934;-75
2021/08/30 21:59:32;;;;;;;30.10;27.80;;;16.60;99.90;;;;;;4954572;28;20456;-75
2021/08/30 22:02:00;;;;;;;30.27;28.03;;;16.70;99.90;;;;;;4954128;29;20452;-76
2021/08/30 22:04:26;;;;;;;30.63;28.43;;;16.70;99.90;;;;;;4954426;28;20453;-75
2021/08/30 22:06:55;;;;;;;28.77;26.70;;;16.70;99.90;;;;;;4953077;28;20448;-75
2021/08/30 22:09:22;;;;;;;30.40;28.20;;;16.70;99.90;;;;;;4954169;28;20484;-76
2021/08/30 22:11:49;;;;;;;31.17;28.13;;;16.80;99.90;;;;;;4954094;28;20899;-76
2021/08/30 22:14:15;;;;;;;29.67;27.67;;;16.70;99.90;;;;;;4953938;28;20841;-76
2021/08/30 22:16:42;;;;;;;31.17;28.73;;;16.70;99.90;;;;;;4954294;28;20468;-76
2021/08/30 22:19:10;;;;;;;31.93;29.70;;;16.70;99.90;;;;;;4953964;28;20453;-76
2021/08/30 22:21:37;;;;;;;31.60;29.53;;;16.70;99.90;;;;;;4954092;28;20456;-76
2021/08/30 22:24:04;;;;;;;32.17;29.30;;;16.60;99.90;;;;;;4953714;28;20824;-76
2021/08/30 22:26:30;;;;;;;31.70;29.60;;;16.40;99.90;;;;;;4954177;28;20449;-75
2021/08/30 22:28:57;;;;;;;34.53;31.93;;;16.40;99.90;;;;;;4948622;28;20469;-79
2021/08/30 22:31:24;;;;;;;33.73;31.27;;;16.40;99.90;;;;;;4941112;29;20468;-76
2021/08/30 22:33:50;;;;;;;33.53;31.10;;;16.40;99.90;;;;;;4935885;29;20515;-78
2021/08/30 22:36:18;;;;;;;32.90;30.50;;;16.40;99.90;;;;;;4944879;29;20468;-82
2021/08/30 22:38:45;;;;;;;32.93;30.70;;;16.40;99.90;;;;;;4935083;29;20457;-79
2021/08/30 22:49:13;;;;;;;34.00;31.63;;;16.30;99.90;;;;;;4907177;29;20846;-74
2021/08/30 22:51:41;;;;;;;34.70;32.20;;;16.20;99.90;;;;;;4905130;29;20463;-73
2021/08/30 22:54:10;;;;;;;35.83;32.83;;;16.20;99.90;;;;;;4896854;29;20455;-73
2021/08/30 22:56:37;;;;;;;34.90;32.30;;;16.20;99.90;;;;;;4906815;29;20467;-74
2021/08/30 22:59:04;;;;;;;38.83;35.80;;;16.20;99.90;;;;;;4896583;29;20455;-73
2021/08/30 23:01:31;;;;;;;35.43;32.63;;;16.20;99.90;;;;;;4896283;29;20447;-74
2021/08/30 23:03:58;;;;;;;36.30;32.80;;;16.30;99.90;;;;;;4896552;29;20495;-74
2021/08/30 23:06:25;;;;;;;37.00;34.30;;;16.30;99.90;;;;;;4896735;29;20451;-73
2021/08/30 23:08:53;;;;;;;37.83;35.07;;;16.40;99.90;;;;;;4896343;29;20455;-74
2021/08/30 23:11:19;;;;;;;39.20;36.10;;;16.30;99.90;;;;;;4896117;29;20670;-74
2021/08/30 23:13:46;;;;;;;36.30;33.70;;;16.30;99.90;;;;;;4896245;29;20545;-75
2021/08/30 23:16:13;;;;;;;37.30;34.70;;;16.30;99.90;;;;;;4896395;29;20451;-78
2021/08/30 23:18:40;;;;;;;37.93;35.03;;;16.40;99.90;;;;;;4895876;29;20455;-74
2021/08/30 23:21:06;;;;;;;39.07;36.27;;;16.40;99.90;;;;;;4895919;29;20455;-75
2021/08/30 23:23:33;;;;;;;37.73;34.90;;;16.20;99.90;;;;;;4896113;29;20463;-74
2021/08/30 23:26:01;;;;;;;37.40;34.77;;;16.20;99.90;;;;;;4895997;29;20466;-74